McKeesport, PA (15135)

5:25 PM EST on January 25, 2015 (GMT -0500)
Mckeesport | Change Station
CLOSE
Current Station
Personal Weather Station
Location: McKeesport, PA
Elevation: 1148 ft
Nearby Weather Stations
Active Advisory: Winter Weather Advisory

Elev 1148 ft 40.32 °N, 79.81 °W | Updated 37 seconds ago

Fog
Fog
35.4 °F
Feels Like 35 °F
N
0.0
Wind Variable Wind from SW
Gusts 0.0 mph

Today
High -- | Low -- °F
--% Chance of Precip.
Yesterday
High -- | Low -- °F
Precip. -- in
7:34 AM 5:29 PM
Waxing Crescent, 36% visible
Pressure 29.81 in
Visibility 0.8 miles
Clouds Mostly Cloudy 300 ft
Overcast 1300 ft
Windchill 35 °F
Dew Point 32 °F
Humidity 89%
Rainfall 0.11 in
Snow Depth Not available.
UV 0 out of 12
Pollen .10 out of 12
Air Quality Not available.
Flu Activity Not available.
METAR KAGC 252153Z 00000KT 3/4SM R28/4500V6000FT -SN BR BKN003 OVC013 01/M01 A2976 RMK AO2 SNB49 SLP095 P0000 T00061011

More Conditions Fewer Conditions

Pressure 29.81 in
Visibility 0.8 miles
Clouds Mostly Cloudy 300 ft
Overcast 1300 ft
Windchill 35 °F
Dew Point 32 °F
Humidity 89%
Rainfall 0.11 in
Snow Depth Not available.
UV 0 out of 12
Pollen .10 out of 12
Air Quality Not available.
Flu Activity Not available.
METAR KAGC 252153Z 00000KT 3/4SM R28/4500V6000FT -SN BR BKN003 OVC013 01/M01 A2976 RMK AO2 SNB49 SLP095 P0000 T00061011

More Conditions Fewer Conditions

10-Day Weather Forecast

Almanac

Astronomy

Jan. 25, 2015 Rise Set
Actual Time
Civil Twilight
Nautical Twilight
Astronomical Twilight
Moon
Length of Visible Light
Length of Day
Tomorrow will be .
, % of the Moon is Illuminated

Today's Extremes

State Highs State Lows

Community

WunderPhotos

Upload Photos

1,790,073 photos uploaded!

WunderBlogs® & News

Nearby

Air Quality

  Air Quality AQ Index Pollutant
Not available.

Snow Depth

Station Depth Elevation

Earthquake Activity

City Distance Mag. Time & Date
Minimum magnitude displayed is 2.5.

Coastal Water Temperatures

Place Temperature

Nearby Weather Stations